Sacramento, California
Traffic Map
Current Weather Conditions
Sacramento, California
Overcast
Overcast
14°
Feels Like: 14°
Wind Chill: 14° Ceiling: 800
Heat Index: 14° Visibility: 10mi
Dew Point: 12° Wind: 9mph
Humidity: 87% Direction: 320° (NW)
Pressure: 30.27in Gusts: 0mph
Raw Report DataKSAC 221553Z AUTO 32008KT 10SM OVC008 14/12 A3027 RMK AO2 SLP250 T01440122 TSNO
Traffic Incident Summary
Active as of:
Severity:
Category:
InformationThere was an issue retrieving the traffic information for this location. Please try a different location or try again shortly.
Advertisements
Track Severe Weather on mobile